sensor_id;sensor_type;location;lat;lon;timestamp;P1;durP1;ratioP1;P2;durP2;ratioP2
11962;SDS011;62678;52.130;5.584;2024-03-08T00:00:04;52.38;;;27.85;;
11962;SDS011;62678;52.130;5.584;2024-03-08T00:02:37;51.33;;;28.23;;
11962;SDS011;62678;52.130;5.584;2024-03-08T00:05:05;50.88;;;27.40;;
11962;SDS011;62678;52.130;5.584;2024-03-08T00:07:33;50.85;;;27.13;;
11962;SDS011;62678;52.130;5.584;2024-03-08T00:10:01;48.97;;;27.45;;
11962;SDS011;62678;52.130;5.584;2024-03-08T00:12:30;54.53;;;28.35;;
11962;SDS011;62678;52.130;5.584;2024-03-08T00:14:57;53.63;;;27.80;;
11962;SDS011;62678;52.130;5.584;2024-03-08T00:17:24;50.35;;;28.50;;
11962;SDS011;62678;52.130;5.584;2024-03-08T00:19:52;53.13;;;28.83;;
11962;SDS011;62678;52.130;5.584;2024-03-08T00:22:19;47.60;;;28.67;;
11962;SDS011;62678;52.130;5.584;2024-03-08T00:24:47;47.08;;;27.38;;
11962;SDS011;62678;52.130;5.584;2024-03-08T00:27:15;52.70;;;28.70;;
11962;SDS011;62678;52.130;5.584;2024-03-08T00:29:47;53.20;;;28.33;;
11962;SDS011;62678;52.130;5.584;2024-03-08T00:32:14;51.92;;;28.73;;
11962;SDS011;62678;52.130;5.584;2024-03-08T00:34:42;51.50;;;27.30;;
11962;SDS011;62678;52.130;5.584;2024-03-08T00:37:09;49.60;;;27.92;;
11962;SDS011;62678;52.130;5.584;2024-03-08T00:39:36;51.95;;;28.98;;
11962;SDS011;62678;52.130;5.584;2024-03-08T00:42:03;52.88;;;29.00;;
11962;SDS011;62678;52.130;5.584;2024-03-08T00:44:31;48.97;;;27.27;;
11962;SDS011;62678;52.130;5.584;2024-03-08T00:46:59;54.28;;;28.25;;
11962;SDS011;62678;52.130;5.584;2024-03-08T00:49:27;51.90;;;29.00;;
11962;SDS011;62678;52.130;5.584;2024-03-08T00:51:54;53.22;;;27.88;;
11962;SDS011;62678;52.130;5.584;2024-03-08T00:54:21;49.35;;;28.00;;
11962;SDS011;62678;52.130;5.584;2024-03-08T00:56:48;50.85;;;29.10;;
11962;SDS011;62678;52.130;5.584;2024-03-08T00:59:15;53.03;;;28.17;;
11962;SDS011;62678;52.130;5.584;2024-03-08T01:01:42;52.15;;;29.05;;
11962;SDS011;62678;52.130;5.584;2024-03-08T01:04:11;49.92;;;28.08;;
11962;SDS011;62678;52.130;5.584;2024-03-08T01:06:38;53.08;;;28.98;;
11962;SDS011;62678;52.130;5.584;2024-03-08T01:09:12;51.78;;;28.27;;
11962;SDS011;62678;52.130;5.584;2024-03-08T01:11:39;48.05;;;27.85;;
11962;SDS011;62678;52.130;5.584;2024-03-08T01:14:07;52.88;;;28.70;;
11962;SDS011;62678;52.130;5.584;2024-03-08T01:16:34;50.10;;;28.77;;
11962;SDS011;62678;52.130;5.584;2024-03-08T01:19:01;51.17;;;28.95;;
11962;SDS011;62678;52.130;5.584;2024-03-08T01:21:30;51.95;;;28.40;;
11962;SDS011;62678;52.130;5.584;2024-03-08T01:23:58;48.50;;;28.08;;
11962;SDS011;62678;52.130;5.584;2024-03-08T01:26:25;51.38;;;28.48;;
11962;SDS011;62678;52.130;5.584;2024-03-08T01:28:52;48.80;;;27.98;;
11962;SDS011;62678;52.130;5.584;2024-03-08T01:31:19;53.90;;;29.65;;
11962;SDS011;62678;52.130;5.584;2024-03-08T01:33:46;51.30;;;28.90;;
11962;SDS011;62678;52.130;5.584;2024-03-08T01:36:15;48.13;;;27.55;;
11962;SDS011;62678;52.130;5.584;2024-03-08T01:38:45;50.40;;;28.88;;
11962;SDS011;62678;52.130;5.584;2024-03-08T01:41:12;48.67;;;29.42;;
11962;SDS011;62678;52.130;5.584;2024-03-08T01:43:41;49.90;;;27.75;;
11962;SDS011;62678;52.130;5.584;2024-03-08T01:46:08;52.85;;;28.92;;
11962;SDS011;62678;52.130;5.584;2024-03-08T01:48:36;49.60;;;28.88;;
11962;SDS011;62678;52.130;5.584;2024-03-08T01:51:03;50.33;;;28.83;;
11962;SDS011;62678;52.130;5.584;2024-03-08T01:53:31;52.78;;;29.08;;
11962;SDS011;62678;52.130;5.584;2024-03-08T01:56:00;50.03;;;28.50;;
11962;SDS011;62678;52.130;5.584;2024-03-08T01:58:27;53.58;;;29.10;;
11962;SDS011;62678;52.130;5.584;2024-03-08T02:00:56;50.33;;;27.95;;
11962;SDS011;62678;52.130;5.584;2024-03-08T02:03:23;49.80;;;29.20;;
11962;SDS011;62678;52.130;5.584;2024-03-08T02:05:50;49.38;;;28.35;;
11962;SDS011;62678;52.130;5.584;2024-03-08T02:08:17;46.85;;;28.10;;
11962;SDS011;62678;52.130;5.584;2024-03-08T02:10:47;46.33;;;27.70;;
11962;SDS011;62678;52.130;5.584;2024-03-08T02:13:16;48.72;;;27.60;;
11962;SDS011;62678;52.130;5.584;2024-03-08T02:15:49;48.83;;;28.60;;
11962;SDS011;62678;52.130;5.584;2024-03-08T02:18:16;53.92;;;29.83;;
11962;SDS011;62678;52.130;5.584;2024-03-08T02:20:45;51.40;;;28.55;;
11962;SDS011;62678;52.130;5.584;2024-03-08T02:23:12;48.85;;;28.55;;
11962;SDS011;62678;52.130;5.584;2024-03-08T02:25:39;57.33;;;29.05;;
11962;SDS011;62678;52.130;5.584;2024-03-08T02:28:08;48.95;;;28.52;;
11962;SDS011;62678;52.130;5.584;2024-03-08T02:30:35;49.80;;;28.20;;
11962;SDS011;62678;52.130;5.584;2024-03-08T02:33:03;55.60;;;30.10;;
11962;SDS011;62678;52.130;5.584;2024-03-08T02:35:30;48.25;;;28.20;;
11962;SDS011;62678;52.130;5.584;2024-03-08T02:37:59;52.70;;;30.40;;
11962;SDS011;62678;52.130;5.584;2024-03-08T02:40:26;49.47;;;29.98;;
11962;SDS011;62678;52.130;5.584;2024-03-08T02:42:53;47.92;;;29.63;;
11962;SDS011;62678;52.130;5.584;2024-03-08T02:45:20;54.42;;;29.60;;
11962;SDS011;62678;52.130;5.584;2024-03-08T02:47:47;52.13;;;28.95;;
11962;SDS011;62678;52.130;5.584;2024-03-08T02:50:15;50.90;;;29.75;;
11962;SDS011;62678;52.130;5.584;2024-03-08T02:52:42;51.70;;;29.73;;
11962;SDS011;62678;52.130;5.584;2024-03-08T02:55:12;49.72;;;29.30;;
11962;SDS011;62678;52.130;5.584;2024-03-08T02:57:41;53.38;;;30.35;;
11962;SDS011;62678;52.130;5.584;2024-03-08T03:00:09;47.80;;;29.00;;
11962;SDS011;62678;52.130;5.584;2024-03-08T03:02:36;47.85;;;29.75;;
11962;SDS011;62678;52.130;5.584;2024-03-08T03:05:03;50.10;;;29.10;;
11962;SDS011;62678;52.130;5.584;2024-03-08T03:07:31;46.72;;;28.67;;
11962;SDS011;62678;52.130;5.584;2024-03-08T03:09:59;50.22;;;29.25;;
11962;SDS011;62678;52.130;5.584;2024-03-08T03:12:28;47.95;;;28.95;;
11962;SDS011;62678;52.130;5.584;2024-03-08T03:14:55;53.22;;;29.27;;
11962;SDS011;62678;52.130;5.584;2024-03-08T03:17:22;53.50;;;29.50;;
11962;SDS011;62678;52.130;5.584;2024-03-08T03:19:49;47.70;;;29.45;;
11962;SDS011;62678;52.130;5.584;2024-03-08T03:22:17;53.03;;;29.42;;
11962;SDS011;62678;52.130;5.584;2024-03-08T03:24:45;49.30;;;29.85;;
11962;SDS011;62678;52.130;5.584;2024-03-08T03:27:12;51.78;;;29.60;;
11962;SDS011;62678;52.130;5.584;2024-03-08T03:29:42;47.80;;;29.92;;
11962;SDS011;62678;52.130;5.584;2024-03-08T03:32:10;50.22;;;29.92;;
11962;SDS011;62678;52.130;5.584;2024-03-08T03:34:37;54.50;;;29.60;;
11962;SDS011;62678;52.130;5.584;2024-03-08T03:37:05;48.25;;;29.75;;
11962;SDS011;62678;52.130;5.584;2024-03-08T03:39:33;46.80;;;28.88;;
11962;SDS011;62678;52.130;5.584;2024-03-08T03:42:05;49.28;;;30.08;;
11962;SDS011;62678;52.130;5.584;2024-03-08T03:44:33;48.53;;;30.35;;
11962;SDS011;62678;52.130;5.584;2024-03-08T03:47:01;50.10;;;30.63;;
11962;SDS011;62678;52.130;5.584;2024-03-08T03:49:28;50.22;;;30.08;;
11962;SDS011;62678;52.130;5.584;2024-03-08T03:51:55;48.08;;;29.17;;
11962;SDS011;62678;52.130;5.584;2024-03-08T03:54:23;49.15;;;29.25;;
11962;SDS011;62678;52.130;5.584;2024-03-08T03:56:50;51.15;;;29.67;;
11962;SDS011;62678;52.130;5.584;2024-03-08T03:59:18;47.80;;;29.42;;
11962;SDS011;62678;52.130;5.584;2024-03-08T04:01:45;48.03;;;28.80;;
11962;SDS011;62678;52.130;5.584;2024-03-08T04:04:15;47.13;;;28.85;;
11962;SDS011;62678;52.130;5.584;2024-03-08T04:06:43;46.38;;;28.35;;
11962;SDS011;62678;52.130;5.584;2024-03-08T04:09:10;47.22;;;29.50;;
11962;SDS011;62678;52.130;5.584;2024-03-08T04:11:37;45.08;;;27.80;;
11962;SDS011;62678;52.130;5.584;2024-03-08T04:14:04;50.78;;;30.25;;
11962;SDS011;62678;52.130;5.584;2024-03-08T04:16:32;44.88;;;27.25;;
11962;SDS011;62678;52.130;5.584;2024-03-08T04:18:59;48.45;;;28.65;;
11962;SDS011;62678;52.130;5.584;2024-03-08T04:21:31;45.42;;;28.05;;
11962;SDS011;62678;52.130;5.584;2024-03-08T04:23:58;47.17;;;27.65;;
11962;SDS011;62678;52.130;5.584;2024-03-08T04:26:26;44.45;;;27.67;;
11962;SDS011;62678;52.130;5.584;2024-03-08T04:28:53;46.78;;;28.60;;
11962;SDS011;62678;52.130;5.584;2024-03-08T04:31:20;49.00;;;28.80;;
11962;SDS011;62678;52.130;5.584;2024-03-08T04:33:47;44.10;;;28.15;;
11962;SDS011;62678;52.130;5.584;2024-03-08T04:36:14;44.30;;;27.58;;
11962;SDS011;62678;52.130;5.584;2024-03-08T04:38:43;44.63;;;28.77;;
11962;SDS011;62678;52.130;5.584;2024-03-08T04:41:10;45.45;;;29.27;;
11962;SDS011;62678;52.130;5.584;2024-03-08T04:43:38;44.65;;;27.92;;
11962;SDS011;62678;52.130;5.584;2024-03-08T04:46:05;50.25;;;30.20;;
11962;SDS011;62678;52.130;5.584;2024-03-08T04:48:32;48.30;;;30.67;;
11962;SDS011;62678;52.130;5.584;2024-03-08T04:51:01;49.60;;;29.33;;
11962;SDS011;62678;52.130;5.584;2024-03-08T04:53:29;45.60;;;29.63;;
11962;SDS011;62678;52.130;5.584;2024-03-08T04:55:59;49.70;;;29.48;;
11962;SDS011;62678;52.130;5.584;2024-03-08T04:58:31;47.28;;;29.50;;
11962;SDS011;62678;52.130;5.584;2024-03-08T05:00:59;47.92;;;29.80;;
11962;SDS011;62678;52.130;5.584;2024-03-08T05:03:26;49.35;;;29.15;;
11962;SDS011;62678;52.130;5.584;2024-03-08T05:05:55;48.20;;;29.10;;
11962;SDS011;62678;52.130;5.584;2024-03-08T05:08:22;50.88;;;29.70;;
11962;SDS011;62678;52.130;5.584;2024-03-08T05:10:51;47.85;;;29.42;;
11962;SDS011;62678;52.130;5.584;2024-03-08T05:13:19;51.30;;;30.77;;
11962;SDS011;62678;52.130;5.584;2024-03-08T05:15:47;48.55;;;29.65;;
11962;SDS011;62678;52.130;5.584;2024-03-08T05:18:15;48.42;;;30.60;;
11962;SDS011;62678;52.130;5.584;2024-03-08T05:20:43;45.92;;;29.88;;
11962;SDS011;62678;52.130;5.584;2024-03-08T05:23:10;51.63;;;30.13;;
11962;SDS011;62678;52.130;5.584;2024-03-08T05:25:37;46.63;;;30.38;;
11962;SDS011;62678;52.130;5.584;2024-03-08T05:28:04;47.30;;;30.20;;
11962;SDS011;62678;52.130;5.584;2024-03-08T05:30:33;48.25;;;30.38;;
11962;SDS011;62678;52.130;5.584;2024-03-08T05:33:01;47.63;;;29.85;;
11962;SDS011;62678;52.130;5.584;2024-03-08T05:35:29;49.25;;;30.30;;
11962;SDS011;62678;52.130;5.584;2024-03-08T05:37:57;49.17;;;30.70;;
11962;SDS011;62678;52.130;5.584;2024-03-08T05:40:24;49.20;;;30.88;;
11962;SDS011;62678;52.130;5.584;2024-03-08T05:42:52;47.22;;;29.90;;
11962;SDS011;62678;52.130;5.584;2024-03-08T05:45:19;49.28;;;30.83;;
11962;SDS011;62678;52.130;5.584;2024-03-08T05:47:48;48.25;;;30.02;;
11962;SDS011;62678;52.130;5.584;2024-03-08T05:50:16;52.25;;;31.52;;
11962;SDS011;62678;52.130;5.584;2024-03-08T05:52:44;49.72;;;30.85;;
11962;SDS011;62678;52.130;5.584;2024-03-08T05:55:12;48.47;;;30.45;;
11962;SDS011;62678;52.130;5.584;2024-03-08T05:57:40;49.20;;;30.88;;
11962;SDS011;62678;52.130;5.584;2024-03-08T06:00:07;47.50;;;30.25;;
11962;SDS011;62678;52.130;5.584;2024-03-08T06:02:36;50.47;;;30.77;;
11962;SDS011;62678;52.130;5.584;2024-03-08T06:05:07;49.67;;;30.48;;
11962;SDS011;62678;52.130;5.584;2024-03-08T06:07:34;51.65;;;31.25;;
11962;SDS011;62678;52.130;5.584;2024-03-08T06:10:02;47.85;;;30.38;;
11962;SDS011;62678;52.130;5.584;2024-03-08T06:12:29;47.55;;;29.70;;
11962;SDS011;62678;52.130;5.584;2024-03-08T06:14:58;50.15;;;30.52;;
11962;SDS011;62678;52.130;5.584;2024-03-08T06:17:26;49.30;;;31.33;;
11962;SDS011;62678;52.130;5.584;2024-03-08T06:19:53;48.22;;;29.83;;
11962;SDS011;62678;52.130;5.584;2024-03-08T06:22:21;48.83;;;30.70;;
11962;SDS011;62678;52.130;5.584;2024-03-08T06:24:49;48.28;;;29.65;;
11962;SDS011;62678;52.130;5.584;2024-03-08T06:27:16;50.25;;;31.85;;
11962;SDS011;62678;52.130;5.584;2024-03-08T06:29:43;51.90;;;31.95;;
11962;SDS011;62678;52.130;5.584;2024-03-08T06:32:11;46.40;;;29.77;;
11962;SDS011;62678;52.130;5.584;2024-03-08T06:34:40;53.22;;;31.80;;
11962;SDS011;62678;52.130;5.584;2024-03-08T06:37:07;51.60;;;31.00;;
11962;SDS011;62678;52.130;5.584;2024-03-08T06:39:36;50.97;;;30.58;;
11962;SDS011;62678;52.130;5.584;2024-03-08T06:42:03;50.25;;;31.48;;
11962;SDS011;62678;52.130;5.584;2024-03-08T06:44:31;48.30;;;29.83;;
11962;SDS011;62678;52.130;5.584;2024-03-08T06:46:59;50.58;;;31.80;;
11962;SDS011;62678;52.130;5.584;2024-03-08T06:49:26;48.40;;;30.55;;
11962;SDS011;62678;52.130;5.584;2024-03-08T06:51:54;49.83;;;31.20;;
11962;SDS011;62678;52.130;5.584;2024-03-08T06:54:22;49.83;;;31.23;;
11962;SDS011;62678;52.130;5.584;2024-03-08T06:56:51;47.20;;;30.25;;
11962;SDS011;62678;52.130;5.584;2024-03-08T06:59:18;54.17;;;31.08;;
11962;SDS011;62678;52.130;5.584;2024-03-08T07:01:45;49.10;;;30.17;;
11962;SDS011;62678;52.130;5.584;2024-03-08T07:04:13;47.20;;;29.55;;
11962;SDS011;62678;52.130;5.584;2024-03-08T07:06:40;47.53;;;30.55;;
11962;SDS011;62678;52.130;5.584;2024-03-08T07:09:07;48.47;;;29.73;;
11962;SDS011;62678;52.130;5.584;2024-03-08T07:11:35;46.92;;;30.42;;
11962;SDS011;62678;52.130;5.584;2024-03-08T07:14:03;48.40;;;29.70;;
11962;SDS011;62678;52.130;5.584;2024-03-08T07:16:31;49.38;;;30.92;;
11962;SDS011;62678;52.130;5.584;2024-03-08T07:18:59;44.83;;;29.83;;
11962;SDS011;62678;52.130;5.584;2024-03-08T07:21:26;44.55;;;29.55;;
11962;SDS011;62678;52.130;5.584;2024-03-08T07:23:54;48.35;;;29.42;;
11962;SDS011;62678;52.130;5.584;2024-03-08T07:26:38;44.47;;;29.10;;
11962;SDS011;62678;52.130;5.584;2024-03-08T07:29:07;47.58;;;29.88;;
11962;SDS011;62678;52.130;5.584;2024-03-08T07:31:34;44.60;;;28.85;;
11962;SDS011;62678;52.130;5.584;2024-03-08T07:34:15;46.30;;;30.08;;
11962;SDS011;62678;52.130;5.584;2024-03-08T07:36:42;45.00;;;29.55;;
11962;SDS011;62678;52.130;5.584;2024-03-08T07:39:09;42.42;;;28.52;;
11962;SDS011;62678;52.130;5.584;2024-03-08T07:41:37;41.95;;;29.13;;
11962;SDS011;62678;52.130;5.584;2024-03-08T07:44:06;46.50;;;28.92;;
11962;SDS011;62678;52.130;5.584;2024-03-08T07:46:34;44.10;;;27.80;;
11962;SDS011;62678;52.130;5.584;2024-03-08T07:49:02;44.47;;;28.85;;
11962;SDS011;62678;52.130;5.584;2024-03-08T07:51:29;46.97;;;29.02;;
11962;SDS011;62678;52.130;5.584;2024-03-08T07:53:56;45.42;;;29.85;;
11962;SDS011;62678;52.130;5.584;2024-03-08T07:56:25;47.60;;;29.52;;
11962;SDS011;62678;52.130;5.584;2024-03-08T07:58:52;42.03;;;27.75;;
11962;SDS011;62678;52.130;5.584;2024-03-08T08:01:20;47.90;;;29.25;;
11962;SDS011;62678;52.130;5.584;2024-03-08T08:03:48;47.38;;;29.77;;
11962;SDS011;62678;52.130;5.584;2024-03-08T08:06:15;43.58;;;28.58;;
11962;SDS011;62678;52.130;5.584;2024-03-08T08:08:42;44.25;;;28.15;;
11962;SDS011;62678;52.130;5.584;2024-03-08T08:11:09;45.65;;;28.92;;
11962;SDS011;62678;52.130;5.584;2024-03-08T08:13:37;41.17;;;28.30;;
11962;SDS011;62678;52.130;5.584;2024-03-08T08:16:04;41.05;;;28.30;;
11962;SDS011;62678;52.130;5.584;2024-03-08T08:18:33;41.85;;;28.25;;
11962;SDS011;62678;52.130;5.584;2024-03-08T08:21:01;44.60;;;28.27;;
11962;SDS011;62678;52.130;5.584;2024-03-08T08:23:30;42.08;;;28.73;;
11962;SDS011;62678;52.130;5.584;2024-03-08T08:25:57;48.17;;;29.38;;
11962;SDS011;62678;52.130;5.584;2024-03-08T08:28:24;41.90;;;28.42;;
11962;SDS011;62678;52.130;5.584;2024-03-08T08:30:52;44.22;;;28.20;;
11962;SDS011;62678;52.130;5.584;2024-03-08T08:33:19;43.13;;;27.10;;
11962;SDS011;62678;52.130;5.584;2024-03-08T08:35:47;41.55;;;26.83;;
11962;SDS011;62678;52.130;5.584;2024-03-08T08:38:18;41.33;;;27.52;;
11962;SDS011;62678;52.130;5.584;2024-03-08T08:40:46;41.00;;;28.13;;
11962;SDS011;62678;52.130;5.584;2024-03-08T08:43:13;41.25;;;25.65;;
11962;SDS011;62678;52.130;5.584;2024-03-08T08:45:40;44.60;;;27.83;;
11962;SDS011;62678;52.130;5.584;2024-03-08T08:48:07;42.00;;;28.23;;
11962;SDS011;62678;52.130;5.584;2024-03-08T08:50:35;40.67;;;26.17;;
11962;SDS011;62678;52.130;5.584;2024-03-08T08:53:04;41.90;;;27.38;;
11962;SDS011;62678;52.130;5.584;2024-03-08T08:55:32;40.92;;;26.50;;
11962;SDS011;62678;52.130;5.584;2024-03-08T08:58:00;39.25;;;26.10;;
11962;SDS011;62678;52.130;5.584;2024-03-08T09:00:28;39.20;;;27.02;;
11962;SDS011;62678;52.130;5.584;2024-03-08T09:02:56;39.75;;;26.75;;
11962;SDS011;62678;52.130;5.584;2024-03-08T09:05:24;37.17;;;25.67;;
11962;SDS011;62678;52.130;5.584;2024-03-08T09:07:51;40.70;;;26.33;;
11962;SDS011;62678;52.130;5.584;2024-03-08T09:10:20;36.38;;;25.55;;
11962;SDS011;62678;52.130;5.584;2024-03-08T09:12:48;37.95;;;24.92;;
11962;SDS011;62678;52.130;5.584;2024-03-08T09:15:15;39.15;;;25.98;;
11962;SDS011;62678;52.130;5.584;2024-03-08T09:17:45;41.10;;;26.15;;
11962;SDS011;62678;52.130;5.584;2024-03-08T09:20:13;37.83;;;25.58;;
11962;SDS011;62678;52.130;5.584;2024-03-08T09:22:43;38.92;;;25.13;;
11962;SDS011;62678;52.130;5.584;2024-03-08T09:25:10;36.50;;;25.98;;
11962;SDS011;62678;52.130;5.584;2024-03-08T09:27:39;39.88;;;26.77;;
11962;SDS011;62678;52.130;5.584;2024-03-08T09:30:06;40.28;;;27.33;;
11962;SDS011;62678;52.130;5.584;2024-03-08T09:32:34;39.20;;;25.67;;
11962;SDS011;62678;52.130;5.584;2024-03-08T09:35:02;37.45;;;25.83;;
11962;SDS011;62678;52.130;5.584;2024-03-08T09:37:32;34.75;;;24.52;;
11962;SDS011;62678;52.130;5.584;2024-03-08T09:39:59;34.88;;;25.02;;
11962;SDS011;62678;52.130;5.584;2024-03-08T09:42:29;34.78;;;24.02;;
11962;SDS011;62678;52.130;5.584;2024-03-08T09:44:59;36.00;;;24.10;;
11962;SDS011;62678;52.130;5.584;2024-03-08T09:47:26;35.88;;;24.58;;
11962;SDS011;62678;52.130;5.584;2024-03-08T09:49:58;36.92;;;24.45;;
11962;SDS011;62678;52.130;5.584;2024-03-08T09:52:26;35.70;;;24.15;;
11962;SDS011;62678;52.130;5.584;2024-03-08T09:54:55;34.95;;;24.77;;
11962;SDS011;62678;52.130;5.584;2024-03-08T09:57:23;33.30;;;23.10;;
11962;SDS011;62678;52.130;5.584;2024-03-08T09:59:50;33.28;;;23.45;;
11962;SDS011;62678;52.130;5.584;2024-03-08T10:02:19;36.67;;;24.15;;
11962;SDS011;62678;52.130;5.584;2024-03-08T10:04:46;31.80;;;22.65;;
11962;SDS011;62678;52.130;5.584;2024-03-08T10:07:13;33.50;;;23.70;;
11962;SDS011;62678;52.130;5.584;2024-03-08T10:09:40;37.08;;;23.48;;
11962;SDS011;62678;52.130;5.584;2024-03-08T10:12:12;33.80;;;23.13;;
11962;SDS011;62678;52.130;5.584;2024-03-08T10:14:40;34.30;;;22.75;;
11962;SDS011;62678;52.130;5.584;2024-03-08T10:17:08;31.98;;;22.67;;
11962;SDS011;62678;52.130;5.584;2024-03-08T10:19:36;32.40;;;22.95;;
11962;SDS011;62678;52.130;5.584;2024-03-08T10:22:04;31.67;;;22.55;;
11962;SDS011;62678;52.130;5.584;2024-03-08T10:24:31;31.55;;;22.90;;
11962;SDS011;62678;52.130;5.584;2024-03-08T10:26:59;33.17;;;21.70;;
11962;SDS011;62678;52.130;5.584;2024-03-08T10:29:29;32.75;;;22.73;;
11962;SDS011;62678;52.130;5.584;2024-03-08T10:31:56;35.78;;;23.52;;
11962;SDS011;62678;52.130;5.584;2024-03-08T10:34:23;31.73;;;22.27;;
11962;SDS011;62678;52.130;5.584;2024-03-08T10:36:52;30.38;;;22.25;;
11962;SDS011;62678;52.130;5.584;2024-03-08T10:39:21;30.75;;;22.27;;
11962;SDS011;62678;52.130;5.584;2024-03-08T10:41:52;30.58;;;21.77;;
11962;SDS011;62678;52.130;5.584;2024-03-08T10:44:21;32.00;;;21.58;;
11962;SDS011;62678;52.130;5.584;2024-03-08T10:46:56;33.28;;;22.45;;
11962;SDS011;62678;52.130;5.584;2024-03-08T10:49:30;28.90;;;21.20;;
11962;SDS011;62678;52.130;5.584;2024-03-08T10:52:03;28.27;;;20.63;;
11962;SDS011;62678;52.130;5.584;2024-03-08T10:54:33;28.85;;;20.90;;
11962;SDS011;62678;52.130;5.584;2024-03-08T10:57:01;29.67;;;20.27;;
11962;SDS011;62678;52.130;5.584;2024-03-08T10:59:30;28.55;;;20.58;;
11962;SDS011;62678;52.130;5.584;2024-03-08T11:01:58;31.80;;;22.02;;
11962;SDS011;62678;52.130;5.584;2024-03-08T11:04:27;28.60;;;21.08;;
11962;SDS011;62678;52.130;5.584;2024-03-08T11:06:57;28.73;;;21.45;;
11962;SDS011;62678;52.130;5.584;2024-03-08T11:09:30;27.30;;;20.58;;
11962;SDS011;62678;52.130;5.584;2024-03-08T11:14:43;32.95;;;21.20;;
11962;SDS011;62678;52.130;5.584;2024-03-08T11:17:14;28.90;;;20.00;;
11962;SDS011;62678;52.130;5.584;2024-03-08T11:19:45;26.13;;;19.25;;
11962;SDS011;62678;52.130;5.584;2024-03-08T11:22:20;26.70;;;18.80;;
11962;SDS011;62678;52.130;5.584;2024-03-08T11:24:50;26.85;;;19.27;;
11962;SDS011;62678;52.130;5.584;2024-03-08T11:27:17;27.92;;;18.38;;
11962;SDS011;62678;52.130;5.584;2024-03-08T11:29:47;24.55;;;18.02;;
11962;SDS011;62678;52.130;5.584;2024-03-08T11:32:27;28.92;;;19.30;;
11962;SDS011;62678;52.130;5.584;2024-03-08T11:34:54;23.83;;;17.98;;
11962;SDS011;62678;52.130;5.584;2024-03-08T11:37:22;26.65;;;19.20;;
11962;SDS011;62678;52.130;5.584;2024-03-08T11:39:51;23.95;;;17.30;;
11962;SDS011;62678;52.130;5.584;2024-03-08T11:42:23;26.25;;;18.70;;
11962;SDS011;62678;52.130;5.584;2024-03-08T11:44:51;25.77;;;18.85;;
11962;SDS011;62678;52.130;5.584;2024-03-08T11:47:19;24.60;;;18.42;;
11962;SDS011;62678;52.130;5.584;2024-03-08T11:49:46;23.83;;;18.38;;
11962;SDS011;62678;52.130;5.584;2024-03-08T11:52:14;26.30;;;17.80;;
11962;SDS011;62678;52.130;5.584;2024-03-08T11:54:41;26.30;;;18.33;;
11962;SDS011;62678;52.130;5.584;2024-03-08T11:57:10;23.83;;;17.35;;
11962;SDS011;62678;52.130;5.584;2024-03-08T11:59:38;23.25;;;17.58;;
11962;SDS011;62678;52.130;5.584;2024-03-08T12:02:05;23.05;;;17.25;;
11962;SDS011;62678;52.130;5.584;2024-03-08T12:04:35;24.80;;;17.73;;
11962;SDS011;62678;52.130;5.584;2024-03-08T12:07:03;25.38;;;17.30;;
11962;SDS011;62678;52.130;5.584;2024-03-08T12:09:34;23.98;;;17.65;;
11962;SDS011;62678;52.130;5.584;2024-03-08T12:12:02;22.50;;;16.50;;
11962;SDS011;62678;52.130;5.584;2024-03-08T12:14:31;20.02;;;16.25;;
11962;SDS011;62678;52.130;5.584;2024-03-08T12:16:58;21.75;;;17.05;;
11962;SDS011;62678;52.130;5.584;2024-03-08T12:19:26;21.00;;;15.63;;
11962;SDS011;62678;52.130;5.584;2024-03-08T12:21:53;19.52;;;15.15;;
11962;SDS011;62678;52.130;5.584;2024-03-08T12:24:21;22.42;;;15.52;;
11962;SDS011;62678;52.130;5.584;2024-03-08T12:26:48;21.50;;;14.80;;
11962;SDS011;62678;52.130;5.584;2024-03-08T12:29:20;21.60;;;14.48;;
11962;SDS011;62678;52.130;5.584;2024-03-08T12:31:51;20.60;;;14.98;;
11962;SDS011;62678;52.130;5.584;2024-03-08T12:34:19;21.98;;;15.27;;
11962;SDS011;62678;52.130;5.584;2024-03-08T12:36:46;20.83;;;15.57;;
11962;SDS011;62678;52.130;5.584;2024-03-08T12:39:15;22.50;;;15.57;;
11962;SDS011;62678;52.130;5.584;2024-03-08T12:41:47;22.83;;;15.95;;
11962;SDS011;62678;52.130;5.584;2024-03-08T12:44:14;21.70;;;15.55;;
11962;SDS011;62678;52.130;5.584;2024-03-08T12:46:42;21.50;;;15.90;;
11962;SDS011;62678;52.130;5.584;2024-03-08T12:49:12;21.17;;;15.82;;
11962;SDS011;62678;52.130;5.584;2024-03-08T12:51:42;22.58;;;16.58;;
11962;SDS011;62678;52.130;5.584;2024-03-08T12:54:10;24.48;;;17.42;;
11962;SDS011;62678;52.130;5.584;2024-03-08T12:56:37;24.77;;;17.05;;
11962;SDS011;62678;52.130;5.584;2024-03-08T12:59:05;23.50;;;16.23;;
11962;SDS011;62678;52.130;5.584;2024-03-08T13:01:32;22.15;;;16.70;;
11962;SDS011;62678;52.130;5.584;2024-03-08T13:04:02;22.17;;;17.05;;
11962;SDS011;62678;52.130;5.584;2024-03-08T13:06:32;25.33;;;17.65;;
11962;SDS011;62678;52.130;5.584;2024-03-08T13:08:59;23.50;;;17.48;;
11962;SDS011;62678;52.130;5.584;2024-03-08T13:11:30;22.77;;;17.23;;
11962;SDS011;62678;52.130;5.584;2024-03-08T13:14:01;26.17;;;17.58;;
11962;SDS011;62678;52.130;5.584;2024-03-08T13:16:29;23.70;;;16.92;;
11962;SDS011;62678;52.130;5.584;2024-03-08T13:18:56;22.60;;;17.10;;
11962;SDS011;62678;52.130;5.584;2024-03-08T13:21:24;20.80;;;15.90;;
11962;SDS011;62678;52.130;5.584;2024-03-08T13:23:52;20.33;;;15.80;;
11962;SDS011;62678;52.130;5.584;2024-03-08T13:26:20;23.38;;;16.95;;
11962;SDS011;62678;52.130;5.584;2024-03-08T13:28:50;22.92;;;16.95;;
11962;SDS011;62678;52.130;5.584;2024-03-08T13:31:18;23.95;;;17.15;;
11962;SDS011;62678;52.130;5.584;2024-03-08T13:33:46;22.95;;;17.42;;
11962;SDS011;62678;52.130;5.584;2024-03-08T13:36:13;25.10;;;16.55;;
11962;SDS011;62678;52.130;5.584;2024-03-08T13:38:41;20.55;;;15.95;;
11962;SDS011;62678;52.130;5.584;2024-03-08T13:41:11;22.10;;;16.13;;
11962;SDS011;62678;52.130;5.584;2024-03-08T13:43:39;23.48;;;17.08;;
11962;SDS011;62678;52.130;5.584;2024-03-08T13:46:07;20.95;;;16.33;;
11962;SDS011;62678;52.130;5.584;2024-03-08T13:48:35;21.60;;;16.63;;
11962;SDS011;62678;52.130;5.584;2024-03-08T13:51:03;20.55;;;16.45;;
11962;SDS011;62678;52.130;5.584;2024-03-08T13:53:31;23.55;;;17.13;;
11962;SDS011;62678;52.130;5.584;2024-03-08T13:56:00;20.67;;;15.95;;
11962;SDS011;62678;52.130;5.584;2024-03-08T13:58:30;21.88;;;15.88;;
11962;SDS011;62678;52.130;5.584;2024-03-08T14:00:57;20.75;;;15.45;;
11962;SDS011;62678;52.130;5.584;2024-03-08T14:03:23;23.00;;;16.10;;
11962;SDS011;62678;52.130;5.584;2024-03-08T14:05:53;22.17;;;16.45;;
11962;SDS011;62678;52.130;5.584;2024-03-08T14:08:22;22.70;;;17.30;;
11962;SDS011;62678;52.130;5.584;2024-03-08T14:10:49;22.63;;;16.75;;
11962;SDS011;62678;52.130;5.584;2024-03-08T14:13:18;24.08;;;17.15;;
11962;SDS011;62678;52.130;5.584;2024-03-08T14:15:47;21.27;;;16.60;;
11962;SDS011;62678;52.130;5.584;2024-03-08T14:18:14;21.67;;;16.35;;
11962;SDS011;62678;52.130;5.584;2024-03-08T14:20:42;22.85;;;16.80;;
11962;SDS011;62678;52.130;5.584;2024-03-08T14:23:09;21.30;;;16.45;;
11962;SDS011;62678;52.130;5.584;2024-03-08T14:25:37;20.98;;;16.80;;
11962;SDS011;62678;52.130;5.584;2024-03-08T14:28:05;21.05;;;15.88;;